This is the latest recevied weather packets stored in our database for station/object W0AVQ. If no packets are shown the sender has not sent any weather packets the latest 1 day(s).
| Time | Temp. | Humidity | Pressure | Rain* | Wind** | Luminosity | Snow |
|---|---|---|---|---|---|---|---|
| 1778038728 | 9.44° C | 99% | 1012 hPa | 0 mm | 0 m/s | 0 W/m² | - |
| 1778038425 | 9.44° C | 99% | 1012 hPa | 0 mm | 2.24 m/s, 31° | 0 W/m² | - |
| 1778038123 | 9.44° C | 99% | 1011.5 hPa | 0 mm | 0 m/s | 0 W/m² | - |
| 1778037819 | 9.44° C | 99% | 1011.6 hPa | 0 mm | 1.34 m/s, 353° | 0 W/m² | - |
| 1778037516 | 10° C | 99% | 1011.3 hPa | 1.78 mm | 0.45 m/s, 33° | 0 W/m² | - |
| 1778037213 | 10° C | 99% | 1011.6 hPa | 1.78 mm | 1.79 m/s, 15° | 0 W/m² | - |
| 1778036911 | 10° C | 99% | 1011.6 hPa | 0 mm | 0 m/s | 0 W/m² | - |
| 1778036609 | 10° C | 99% | 1011.6 hPa | 0 mm | 0 m/s | 0 W/m² | - |
| 1778036305 | 10° C | 99% | 1011.4 hPa | 0 mm | 1.34 m/s, 39° | 0 W/m² | - |
| 1778036001 | 10° C | 99% | 1011 hPa | 0 mm | 0.45 m/s, 291° | 0 W/m² | - |
| 1778035699 | 10° C | 99% | 1010.9 hPa | 0 mm | 2.24 m/s, 284° | 0 W/m² | - |
| 1778035396 | 10° C | 99% | 1010.7 hPa | 0 mm | 0 m/s | 0 W/m² | - |
| 1778035092 | 10° C | 99% | 1010.8 hPa | 0 mm | 2.24 m/s, 9° | 0 W/m² | - |
| 1778034789 | 10° C | 99% | 1010.8 hPa | 1.27 mm | 0 m/s | 0 W/m² | - |
| 1778034485 | 10° C | 99% | 1010.8 hPa | 1.27 mm | 0 m/s | 0 W/m² | - |
| 1778034183 | 10° C | 99% | 1011.1 hPa | 0 mm | 0 m/s | 0 W/m² | - |
| 1778033881 | 10° C | 99% | 1010.5 hPa | 1.78 mm | 0.89 m/s, 342° | 0 W/m² | - |
| 1778033578 | 10° C | 99% | 1010.6 hPa | 1.78 mm | 0 m/s | 0 W/m² | - |
| 1778033274 | 10° C | 99% | 1010.5 hPa | 0 mm | 0 m/s | 0 W/m² | - |
| 1778032973 | 10° C | 99% | 1010.1 hPa | 0 mm | 0.45 m/s, 343° | 0 W/m² | - |
| 1778032670 | 10° C | 99% | 1010.2 hPa | 0 mm | 0.45 m/s, 284° | 0 W/m² | - |
| 1778032373 | 10° C | 99% | 1010.2 hPa | 0 mm | 0.89 m/s, 304° | 0 W/m² | - |
| 1778032064 | 10° C | 99% | 1010 hPa | 0 mm | 0 m/s | 0 W/m² | - |
| 1778031761 | 10° C | 99% | 1010.2 hPa | 84.07 mm | 1.34 m/s, 331° | 0 W/m² | - |
| 1778031458 | 10° C | 99% | 1010.1 hPa | 84.07 mm | 1.34 m/s, 320° | 0 W/m² | - |
* Rain latest hour (hover to see other rain measurements)
** Current wind speed in m/s (hover to see current wind gust speed)